EST,Max TemperatureF,Mean TemperatureF,Min TemperatureF,Max Dew PointF,MeanDew PointF,Min DewpointF,Max Humidity, Mean Humidity, Min Humidity, Max Sea Level PressureIn, Mean Sea Level PressureIn, Min Sea Level PressureIn, Max VisibilityMiles, Mean VisibilityMiles, Min VisibilityMiles, Max Wind SpeedMPH, Mean Wind SpeedMPH, Max Gust SpeedMPH,PrecipitationIn, CloudCover, Events, WindDirDegrees
2013-12-1,48,39,30,32,29,26,85,63,43,30.37,30.21,30.05,10,10,9,6,2,,0.00,5,,277
2013-12-2,51,44,37,34,30,28,73,60,43,30.04,29.96,29.91,10,8,6,5,0,,0.00,6,,51
2013-12-3,54,45,36,39,35,31,83,70,43,30.04,29.96,29.91,9,7,5,8,3,,0.00,4,,328
2013-12-4,54,45,36,45,39,31,86,74,59,30.13,30.10,30.04,8,6,4,7,2,,0.00,5,,68
2013-12-5,61,54,48,59,53,45,100,92,76,30.12,30.04,29.95,7,3,0,8,2,,0.01,8,Fog-Rain,150
2013-12-6,63,51,39,61,46,36,100,90,81,30.17,30.05,29.91,10,6,2,21,9,24,0.76,8,Rain,349
2013-12-7,39,34,30,36,31,22,93,78,55,30.55,30.31,30.12,10,9,3,17,10,24,0.11,5,Rain,344
2013-12-8,32,30,27,30,24,16,93,83,57,30.62,30.51,30.35,10,4,0,12,7,,0.40,7,Fog-Rain-Snow,37
2013-12-9,37,34,32,36,33,30,100,92,87,30.34,30.13,30.02,6,4,1,14,9,,0.60,7,Rain,352
2013-12-10,36,32,27,34,29,19,100,86,69,30.20,30.02,29.95,10,4,0,13,6,18,0.38,5,Fog-Snow,286
2013-12-11,34,26,17,19,17,14,88,68,48,30.40,30.31,30.22,10,10,2,15,5,23,0.00,1,,257
2013-12-12,28,26,23,19,11,5,80,58,39,30.42,30.33,30.22,10,9,2,14,7,21,0.00,1,Snow,300
2013-12-13,37,31,25,20,13,6,69,49,39,30.36,30.25,30.19,10,10,10,17,11,26,0.00,1,,262
2013-12-14,34,30,28,33,27,21,96,85,67,30.46,30.16,29.71,10,5,1,22,11,30,0.40,7,Rain-Snow,57
2013-12-15,41,36,30,34,30,21,100,79,57,29.91,29.70,29.57,10,9,3,18,10,28,0.25,6,Rain,293
2013-12-16,33,28,24,22,12,8,66,51,40,30.26,30.13,29.91,10,10,10,16,10,25,0.00,2,,290
2013-12-17,33,28,24,29,23,14,93,80,58,30.23,30.08,29.96,10,5,1,9,5,,0.10,7,Snow,31
2013-12-18,37,29,21,22,19,18,85,64,48,30.23,30.12,29.99,10,9,6,18,8,26,0.00,2,,281
2013-12-19,46,34,23,31,26,18,85,67,50,30.23,30.15,30.09,10,9,6,14,2,20,0.00,0,,222
2013-12-20,54,44,33,47,34,29,85,67,45,30.12,30.07,30.01,10,10,9,15,3,21,0.00,2,,216
2013-12-21,68,56,44,56,50,42,93,75,56,30.03,29.98,29.93,10,10,5,13,5,21,0.02,2,,214
2013-12-22,69,66,62,64,60,56,94,82,73,29.99,29.93,29.84,10,9,2,23,12,33,0.10,6,Rain,221
2013-12-23,64,54,43,61,53,31,100,86,62,30.19,30.02,29.93,10,7,0,20,7,25,0.55,8,Fog-Rain,296
2013-12-24,42,35,28,30,21,11,70,55,45,30.42,30.23,30.15,10,10,10,20,12,30,0.00,2,,325
2013-12-25,30,26,21,16,9,6,61,48,40,30.58,30.51,30.43,10,10,10,13,6,24,0.00,0,,360
2013-12-26,42,32,21,26,21,16,85,69,51,30.43,30.32,30.22,10,10,4,18,2,26,0.00,3,Snow,266
2013-12-27,46,36,27,23,20,16,81,58,30,30.42,30.36,30.31,10,10,8,13,4,23,0.00,2,,263
2013-12-28,57,41,25,29,26,20,84,55,30,30.32,30.22,30.12,10,10,9,14,4,21,0.00,0,,226
2013-12-29,48,44,39,46,40,29,100,84,54,30.11,29.76,29.46,10,6,1,15,5,23,1.23,6,Rain,50
2013-12-30,46,36,27,39,29,14,89,69,49,30.20,30.01,29.78,10,10,9,18,8,23,0.00,6,,305
2013-12-31,37,30,24,25,16,10,65,55,45,30.35,30.20,30.10,10,10,6,18,7,28,0.00,4,Snow,281